METAR

SADR31 MDSD 260900Z
METAR

METAR MDPP 260900Z 14006KT 9999 FEW016 22/21 Q1017=
METAR MDST 260900Z 00000KT 9999 FEW016 18/18 Q1017=
METAR MDPC 260900Z 09012KT 9999 FEW020 25/20 Q1017 NOSIG=
METAR MDSD 260900Z 03004KT 9999 FEW016 20/19 Q1017=